sensor_id;sensor_type;location;lat;lon;timestamp;temperature;humidity
54006;DHT22;39919;38.160;-122.260;2022-11-24T02:05:12;14.90;61.00
54006;DHT22;39919;38.160;-122.260;2022-11-24T02:07:43;14.80;61.40
54006;DHT22;39919;38.160;-122.260;2022-11-24T02:10:12;14.70;61.50
54006;DHT22;39919;38.160;-122.260;2022-11-24T02:12:44;14.60;61.60
54006;DHT22;39919;38.160;-122.260;2022-11-24T02:15:14;14.50;61.40
54006;DHT22;39919;38.160;-122.260;2022-11-24T02:17:43;14.50;61.40
54006;DHT22;39919;38.160;-122.260;2022-11-24T02:20:14;14.40;61.70
54006;DHT22;39919;38.160;-122.260;2022-11-24T02:22:44;14.30;61.70
54006;DHT22;39919;38.160;-122.260;2022-11-24T02:25:15;14.30;61.80
54006;DHT22;39919;38.160;-122.260;2022-11-24T02:27:51;14.20;61.60
54006;DHT22;39919;38.160;-122.260;2022-11-24T02:30:20;14.10;62.40
54006;DHT22;39919;38.160;-122.260;2022-11-24T02:32:49;14.00;62.40
54006;DHT22;39919;38.160;-122.260;2022-11-24T02:35:18;14.00;62.80
54006;DHT22;39919;38.160;-122.260;2022-11-24T02:37:46;13.90;62.70
54006;DHT22;39919;38.160;-122.260;2022-11-24T02:40:15;13.80;63.10
54006;DHT22;39919;38.160;-122.260;2022-11-24T02:42:45;13.70;63.10
54006;DHT22;39919;38.160;-122.260;2022-11-24T02:45:15;13.60;63.30
54006;DHT22;39919;38.160;-122.260;2022-11-24T02:47:44;13.50;63.20
54006;DHT22;39919;38.160;-122.260;2022-11-24T02:50:12;13.50;63.60
54006;DHT22;39919;38.160;-122.260;2022-11-24T02:52:40;13.40;63.80
54006;DHT22;39919;38.160;-122.260;2022-11-24T02:55:09;13.40;64.10
54006;DHT22;39919;38.160;-122.260;2022-11-24T02:57:37;13.30;64.90
54006;DHT22;39919;38.160;-122.260;2022-11-24T03:00:06;13.20;64.80
54006;DHT22;39919;38.160;-122.260;2022-11-24T03:02:37;13.10;64.80
54006;DHT22;39919;38.160;-122.260;2022-11-24T03:05:05;13.00;64.40
54006;DHT22;39919;38.160;-122.260;2022-11-24T03:07:34;12.90;64.80
54006;DHT22;39919;38.160;-122.260;2022-11-24T03:10:02;12.90;65.30
54006;DHT22;39919;38.160;-122.260;2022-11-24T03:12:30;12.80;65.70
54006;DHT22;39919;38.160;-122.260;2022-11-24T03:14:59;12.70;66.20
54006;DHT22;39919;38.160;-122.260;2022-11-24T03:17:28;12.60;66.30
54006;DHT22;39919;38.160;-122.260;2022-11-24T03:19:58;12.60;66.10
54006;DHT22;39919;38.160;-122.260;2022-11-24T03:22:27;12.50;65.90
54006;DHT22;39919;38.160;-122.260;2022-11-24T03:24:55;12.40;66.20
54006;DHT22;39919;38.160;-122.260;2022-11-24T03:27:23;12.30;66.70
54006;DHT22;39919;38.160;-122.260;2022-11-24T03:29:51;12.30;67.10
54006;DHT22;39919;38.160;-122.260;2022-11-24T03:32:20;12.20;67.00
54006;DHT22;39919;38.160;-122.260;2022-11-24T03:34:48;12.10;66.70
54006;DHT22;39919;38.160;-122.260;2022-11-24T03:37:18;12.10;66.70
54006;DHT22;39919;38.160;-122.260;2022-11-24T03:39:47;12.00;66.20
54006;DHT22;39919;38.160;-122.260;2022-11-24T03:42:15;11.90;66.10
54006;DHT22;39919;38.160;-122.260;2022-11-24T03:44:44;11.90;66.50
54006;DHT22;39919;38.160;-122.260;2022-11-24T03:47:13;11.80;66.90
54006;DHT22;39919;38.160;-122.260;2022-11-24T03:49:41;11.80;67.80
54006;DHT22;39919;38.160;-122.260;2022-11-24T03:52:09;11.70;68.00
54006;DHT22;39919;38.160;-122.260;2022-11-24T03:54:39;11.60;68.00
54006;DHT22;39919;38.160;-122.260;2022-11-24T03:57:07;11.60;67.90
54006;DHT22;39919;38.160;-122.260;2022-11-24T03:59:35;11.60;69.90
54006;DHT22;39919;38.160;-122.260;2022-11-24T04:02:04;11.50;68.20
54006;DHT22;39919;38.160;-122.260;2022-11-24T04:04:33;11.40;69.10
54006;DHT22;39919;38.160;-122.260;2022-11-24T04:07:01;11.30;68.90
54006;DHT22;39919;38.160;-122.260;2022-11-24T04:09:29;11.30;69.00
54006;DHT22;39919;38.160;-122.260;2022-11-24T04:11:59;11.30;69.30
54006;DHT22;39919;38.160;-122.260;2022-11-24T04:14:43;11.20;69.20
54006;DHT22;39919;38.160;-122.260;2022-11-24T04:17:14;11.10;68.70
54006;DHT22;39919;38.160;-122.260;2022-11-24T04:19:46;11.10;68.60
54006;DHT22;39919;38.160;-122.260;2022-11-24T04:22:14;11.10;68.90
54006;DHT22;39919;38.160;-122.260;2022-11-24T04:24:42;11.00;69.90
54006;DHT22;39919;38.160;-122.260;2022-11-24T04:27:12;11.00;69.70
54006;DHT22;39919;38.160;-122.260;2022-11-24T04:29:40;10.90;69.90
54006;DHT22;39919;38.160;-122.260;2022-11-24T04:32:09;10.90;70.20
54006;DHT22;39919;38.160;-122.260;2022-11-24T04:34:37;10.90;79.20
54006;DHT22;39919;38.160;-122.260;2022-11-24T04:37:05;10.80;70.30
54006;DHT22;39919;38.160;-122.260;2022-11-24T04:39:34;10.80;70.50
54006;DHT22;39919;38.160;-122.260;2022-11-24T04:42:02;10.70;70.50
54006;DHT22;39919;38.160;-122.260;2022-11-24T04:44:32;10.60;70.40
54006;DHT22;39919;38.160;-122.260;2022-11-24T04:47:00;10.60;70.90
54006;DHT22;39919;38.160;-122.260;2022-11-24T04:49:29;10.60;71.50
54006;DHT22;39919;38.160;-122.260;2022-11-24T04:51:57;10.50;71.30
54006;DHT22;39919;38.160;-122.260;2022-11-24T04:54:27;10.50;71.30
54006;DHT22;39919;38.160;-122.260;2022-11-24T04:56:55;10.50;71.60
54006;DHT22;39919;38.160;-122.260;2022-11-24T04:59:24;10.40;71.50
54006;DHT22;39919;38.160;-122.260;2022-11-24T05:01:54;10.40;71.50
54006;DHT22;39919;38.160;-122.260;2022-11-24T05:04:23;10.30;71.70
54006;DHT22;39919;38.160;-122.260;2022-11-24T05:06:51;10.30;71.50
54006;DHT22;39919;38.160;-122.260;2022-11-24T05:09:19;10.20;71.70
54006;DHT22;39919;38.160;-122.260;2022-11-24T05:11:48;10.20;72.20
54006;DHT22;39919;38.160;-122.260;2022-11-24T05:14:16;10.20;72.20
54006;DHT22;39919;38.160;-122.260;2022-11-24T05:16:44;10.10;71.80
54006;DHT22;39919;38.160;-122.260;2022-11-24T05:19:14;10.10;71.50
54006;DHT22;39919;38.160;-122.260;2022-11-24T05:21:43;10.10;71.50
54006;DHT22;39919;38.160;-122.260;2022-11-24T05:24:12;10.00;71.30
54006;DHT22;39919;38.160;-122.260;2022-11-24T05:26:40;10.00;71.30
54006;DHT22;39919;38.160;-122.260;2022-11-24T05:29:08;10.00;72.20
54006;DHT22;39919;38.160;-122.260;2022-11-24T05:31:37;9.90;72.80
54006;DHT22;39919;38.160;-122.260;2022-11-24T05:34:05;9.90;73.10
54006;DHT22;39919;38.160;-122.260;2022-11-24T05:36:35;9.90;73.10
54006;DHT22;39919;38.160;-122.260;2022-11-24T05:39:21;9.80;72.50
54006;DHT22;39919;38.160;-122.260;2022-11-24T05:41:50;9.80;72.20
54006;DHT22;39919;38.160;-122.260;2022-11-24T05:44:19;9.80;72.20
54006;DHT22;39919;38.160;-122.260;2022-11-24T05:46:47;9.70;72.50
54006;DHT22;39919;38.160;-122.260;2022-11-24T05:49:15;9.70;72.40
54006;DHT22;39919;38.160;-122.260;2022-11-24T05:51:45;9.70;72.80
54006;DHT22;39919;38.160;-122.260;2022-11-24T05:54:15;9.70;73.20
54006;DHT22;39919;38.160;-122.260;2022-11-24T05:56:43;9.60;73.70
54006;DHT22;39919;38.160;-122.260;2022-11-24T05:59:11;9.60;73.60
54006;DHT22;39919;38.160;-122.260;2022-11-24T06:01:40;9.60;73.50
54006;DHT22;39919;38.160;-122.260;2022-11-24T06:04:08;9.50;73.10
54006;DHT22;39919;38.160;-122.260;2022-11-24T06:06:36;9.50;74.10
54006;DHT22;39919;38.160;-122.260;2022-11-24T06:09:06;9.50;74.40
54006;DHT22;39919;38.160;-122.260;2022-11-24T06:11:35;9.40;74.00
54006;DHT22;39919;38.160;-122.260;2022-11-24T06:14:03;9.40;74.00
54006;DHT22;39919;38.160;-122.260;2022-11-24T06:16:31;9.30;73.50
54006;DHT22;39919;38.160;-122.260;2022-11-24T06:19:00;9.30;74.90
54006;DHT22;39919;38.160;-122.260;2022-11-24T06:21:28;9.20;75.90
54006;DHT22;39919;38.160;-122.260;2022-11-24T06:23:57;9.20;75.50
54006;DHT22;39919;38.160;-122.260;2022-11-24T06:26:27;9.20;76.80
54006;DHT22;39919;38.160;-122.260;2022-11-24T06:29:07;9.10;76.80
54006;DHT22;39919;38.160;-122.260;2022-11-24T06:31:35;9.00;76.60
54006;DHT22;39919;38.160;-122.260;2022-11-24T06:34:05;9.10;79.10
54006;DHT22;39919;38.160;-122.260;2022-11-24T06:36:35;9.00;78.50
54006;DHT22;39919;38.160;-122.260;2022-11-24T06:39:04;9.00;77.80
54006;DHT22;39919;38.160;-122.260;2022-11-24T06:41:37;8.90;77.50
54006;DHT22;39919;38.160;-122.260;2022-11-24T06:44:05;8.90;78.30
54006;DHT22;39919;38.160;-122.260;2022-11-24T06:46:34;8.90;78.10
54006;DHT22;39919;38.160;-122.260;2022-11-24T06:49:02;8.90;78.80
54006;DHT22;39919;38.160;-122.260;2022-11-24T06:51:31;8.90;79.50
54006;DHT22;39919;38.160;-122.260;2022-11-24T06:53:59;8.90;79.40
54006;DHT22;39919;38.160;-122.260;2022-11-24T06:56:28;8.80;79.80
54006;DHT22;39919;38.160;-122.260;2022-11-24T06:58:58;8.80;80.50
54006;DHT22;39919;38.160;-122.260;2022-11-24T07:01:27;8.80;80.90
54006;DHT22;39919;38.160;-122.260;2022-11-24T07:03:57;8.80;81.80
54006;DHT22;39919;38.160;-122.260;2022-11-24T07:06:25;8.80;81.70
54006;DHT22;39919;38.160;-122.260;2022-11-24T07:08:53;8.80;81.20
54006;DHT22;39919;38.160;-122.260;2022-11-24T07:11:22;8.80;80.70
54006;DHT22;39919;38.160;-122.260;2022-11-24T07:13:50;8.80;80.80
54006;DHT22;39919;38.160;-122.260;2022-11-24T07:16:21;8.80;80.70
54006;DHT22;39919;38.160;-122.260;2022-11-24T07:18:50;8.80;80.10
54006;DHT22;39919;38.160;-122.260;2022-11-24T07:21:19;8.70;79.90
54006;DHT22;39919;38.160;-122.260;2022-11-24T07:23:47;8.70;79.50
54006;DHT22;39919;38.160;-122.260;2022-11-24T07:26:16;8.70;79.50
54006;DHT22;39919;38.160;-122.260;2022-11-24T07:28:44;8.70;79.10
54006;DHT22;39919;38.160;-122.260;2022-11-24T07:31:13;8.60;80.20
54006;DHT22;39919;38.160;-122.260;2022-11-24T07:33:47;8.60;80.10
54006;DHT22;39919;38.160;-122.260;2022-11-24T07:36:15;8.60;81.40
54006;DHT22;39919;38.160;-122.260;2022-11-24T07:38:44;8.60;82.50
54006;DHT22;39919;38.160;-122.260;2022-11-24T07:41:13;8.50;82.30
54006;DHT22;39919;38.160;-122.260;2022-11-24T07:43:41;8.50;82.40
54006;DHT22;39919;38.160;-122.260;2022-11-24T07:46:11;8.50;82.10
54006;DHT22;39919;38.160;-122.260;2022-11-24T07:48:39;8.40;81.80
54006;DHT22;39919;38.160;-122.260;2022-11-24T07:51:09;8.40;82.30
54006;DHT22;39919;38.160;-122.260;2022-11-24T07:53:37;8.40;83.10
54006;DHT22;39919;38.160;-122.260;2022-11-24T07:56:06;8.40;83.60
54006;DHT22;39919;38.160;-122.260;2022-11-24T07:58:36;8.30;83.80
54006;DHT22;39919;38.160;-122.260;2022-11-24T08:01:08;8.30;83.70
54006;DHT22;39919;38.160;-122.260;2022-11-24T08:03:37;8.30;84.00
54006;DHT22;39919;38.160;-122.260;2022-11-24T08:06:05;8.20;83.70
54006;DHT22;39919;38.160;-122.260;2022-11-24T08:08:36;8.20;83.20
54006;DHT22;39919;38.160;-122.260;2022-11-24T08:11:05;8.10;83.40
54006;DHT22;39919;38.160;-122.260;2022-11-24T08:13:34;8.10;83.60
54006;DHT22;39919;38.160;-122.260;2022-11-24T08:16:03;8.10;84.70
54006;DHT22;39919;38.160;-122.260;2022-11-24T08:18:32;8.00;85.20
54006;DHT22;39919;38.160;-122.260;2022-11-24T08:21:00;8.00;85.10
54006;DHT22;39919;38.160;-122.260;2022-11-24T08:23:29;8.00;85.40
54006;DHT22;39919;38.160;-122.260;2022-11-24T08:26:01;7.90;84.80
54006;DHT22;39919;38.160;-122.260;2022-11-24T08:28:30;7.90;85.00
54006;DHT22;39919;38.160;-122.260;2022-11-24T08:31:02;7.90;85.00
54006;DHT22;39919;38.160;-122.260;2022-11-24T08:33:32;7.80;85.10
54006;DHT22;39919;38.160;-122.260;2022-11-24T08:36:03;7.80;84.50
54006;DHT22;39919;38.160;-122.260;2022-11-24T08:38:32;7.80;84.80
54006;DHT22;39919;38.160;-122.260;2022-11-24T08:41:03;7.70;85.70
54006;DHT22;39919;38.160;-122.260;2022-11-24T08:43:32;7.70;85.30
54006;DHT22;39919;38.160;-122.260;2022-11-24T08:46:02;7.60;85.50
54006;DHT22;39919;38.160;-122.260;2022-11-24T08:48:31;7.60;85.70
54006;DHT22;39919;38.160;-122.260;2022-11-24T08:51:04;7.60;85.50
54006;DHT22;39919;38.160;-122.260;2022-11-24T08:53:33;7.60;85.30
54006;DHT22;39919;38.160;-122.260;2022-11-24T08:56:03;7.60;85.30
54006;DHT22;39919;38.160;-122.260;2022-11-24T08:58:32;7.50;84.80
54006;DHT22;39919;38.160;-122.260;2022-11-24T09:01:03;7.50;84.20
54006;DHT22;39919;38.160;-122.260;2022-11-24T09:03:32;7.40;83.90
54006;DHT22;39919;38.160;-122.260;2022-11-24T09:06:04;7.40;84.20
54006;DHT22;39919;38.160;-122.260;2022-11-24T09:08:34;7.40;83.50
54006;DHT22;39919;38.160;-122.260;2022-11-24T09:11:05;7.40;83.00
54006;DHT22;39919;38.160;-122.260;2022-11-24T09:13:34;7.40;83.80
54006;DHT22;39919;38.160;-122.260;2022-11-24T09:16:03;7.40;85.80
54006;DHT22;39919;38.160;-122.260;2022-11-24T09:18:31;7.30;86.00
54006;DHT22;39919;38.160;-122.260;2022-11-24T09:21:06;7.30;85.90
54006;DHT22;39919;38.160;-122.260;2022-11-24T09:23:35;7.30;87.30
54006;DHT22;39919;38.160;-122.260;2022-11-24T09:26:06;7.30;88.40
54006;DHT22;39919;38.160;-122.260;2022-11-24T09:28:34;7.20;88.60
54006;DHT22;39919;38.160;-122.260;2022-11-24T09:31:04;7.20;88.20
54006;DHT22;39919;38.160;-122.260;2022-11-24T09:33:33;7.20;87.70
54006;DHT22;39919;38.160;-122.260;2022-11-24T09:36:02;7.20;87.10
54006;DHT22;39919;38.160;-122.260;2022-11-24T09:38:31;7.10;86.90
54006;DHT22;39919;38.160;-122.260;2022-11-24T09:41:10;7.10;88.10
54006;DHT22;39919;38.160;-122.260;2022-11-24T09:43:47;7.10;90.80
54006;DHT22;39919;38.160;-122.260;2022-11-24T09:46:17;7.10;91.60
54006;DHT22;39919;38.160;-122.260;2022-11-24T09:48:47;7.00;91.70
54006;DHT22;39919;38.160;-122.260;2022-11-24T09:51:17;7.10;92.50
54006;DHT22;39919;38.160;-122.260;2022-11-24T09:53:51;7.00;92.50
54006;DHT22;39919;38.160;-122.260;2022-11-24T09:56:23;7.00;92.90
54006;DHT22;39919;38.160;-122.260;2022-11-24T09:58:56;7.00;92.50
54006;DHT22;39919;38.160;-122.260;2022-11-24T10:01:27;7.00;92.40
54006;DHT22;39919;38.160;-122.260;2022-11-24T10:03:59;7.00;92.70
54006;DHT22;39919;38.160;-122.260;2022-11-24T10:06:28;7.00;92.30
54006;DHT22;39919;38.160;-122.260;2022-11-24T10:09:02;6.90;92.70
54006;DHT22;39919;38.160;-122.260;2022-11-24T10:11:37;7.00;93.40
54006;DHT22;39919;38.160;-122.260;2022-11-24T10:14:10;7.00;93.80
54006;DHT22;39919;38.160;-122.260;2022-11-24T10:16:44;6.90;93.90
54006;DHT22;39919;38.160;-122.260;2022-11-24T10:19:18;6.90;94.50
54006;DHT22;39919;38.160;-122.260;2022-11-24T10:21:52;6.90;94.70
54006;DHT22;39919;38.160;-122.260;2022-11-24T10:27:12;7.00;95.90
54006;DHT22;39919;38.160;-122.260;2022-11-24T10:29:43;7.00;96.20
54006;DHT22;39919;38.160;-122.260;2022-11-24T10:32:13;7.00;96.40
54006;DHT22;39919;38.160;-122.260;2022-11-24T10:34:46;7.10;96.30
54006;DHT22;39919;38.160;-122.260;2022-11-24T10:37:17;7.10;96.40
54006;DHT22;39919;38.160;-122.260;2022-11-24T10:39:48;7.10;96.30
54006;DHT22;39919;38.160;-122.260;2022-11-24T10:42:22;7.10;96.00
54006;DHT22;39919;38.160;-122.260;2022-11-24T10:44:57;7.20;96.70
54006;DHT22;39919;38.160;-122.260;2022-11-24T10:47:26;7.20;97.00
54006;DHT22;39919;38.160;-122.260;2022-11-24T10:49:55;7.20;97.00
54006;DHT22;39919;38.160;-122.260;2022-11-24T10:52:25;7.20;97.30
54006;DHT22;39919;38.160;-122.260;2022-11-24T10:54:54;7.20;97.10
54006;DHT22;39919;38.160;-122.260;2022-11-24T10:57:27;7.20;96.90
54006;DHT22;39919;38.160;-122.260;2022-11-24T10:59:56;7.20;96.70
54006;DHT22;39919;38.160;-122.260;2022-11-24T11:02:29;7.20;96.20
54006;DHT22;39919;38.160;-122.260;2022-11-24T11:04:58;7.20;95.80
54006;DHT22;39919;38.160;-122.260;2022-11-24T11:07:46;7.20;95.20
54006;DHT22;39919;38.160;-122.260;2022-11-24T11:10:18;7.20;94.60
54006;DHT22;39919;38.160;-122.260;2022-11-24T11:12:48;7.20;94.30
54006;DHT22;39919;38.160;-122.260;2022-11-24T11:15:23;7.20;93.90
54006;DHT22;39919;38.160;-122.260;2022-11-24T11:17:55;7.10;93.50
54006;DHT22;39919;38.160;-122.260;2022-11-24T11:20:26;7.10;93.20
54006;DHT22;39919;38.160;-122.260;2022-11-24T11:22:55;7.10;93.20
54006;DHT22;39919;38.160;-122.260;2022-11-24T11:25:25;7.10;93.30
54006;DHT22;39919;38.160;-122.260;2022-11-24T11:28:09;7.10;94.00
54006;DHT22;39919;38.160;-122.260;2022-11-24T11:30:37;7.00;93.80
54006;DHT22;39919;38.160;-122.260;2022-11-24T11:33:16;7.00;92.50
54006;DHT22;39919;38.160;-122.260;2022-11-24T11:35:45;7.00;85.30
54006;DHT22;39919;38.160;-122.260;2022-11-24T11:38:13;7.20;73.50
54006;DHT22;39919;38.160;-122.260;2022-11-24T11:40:42;7.30;72.10
54006;DHT22;39919;38.160;-122.260;2022-11-24T11:43:17;7.60;69.70
54006;DHT22;39919;38.160;-122.260;2022-11-24T11:45:49;7.90;
54006;DHT22;39919;38.160;-122.260;2022-11-24T11:48:25;8.30;66.70
54006;DHT22;39919;38.160;-122.260;2022-11-24T11:50:57;8.60;65.90
54006;DHT22;39919;38.160;-122.260;2022-11-24T11:53:27;8.80;64.40
54006;DHT22;39919;38.160;-122.260;2022-11-24T11:55:58;9.10;63.30
54006;DHT22;39919;38.160;-122.260;2022-11-24T12:01:20;9.50;62.20
54006;DHT22;39919;38.160;-122.260;2022-11-24T12:03:54;9.80;61.50
54006;DHT22;39919;38.160;-122.260;2022-11-24T12:06:30;9.90;60.80
54006;DHT22;39919;38.160;-122.260;2022-11-24T12:09:05;10.00;61.20
54006;DHT22;39919;38.160;-122.260;2022-11-24T12:11:35;10.10;61.30
54006;DHT22;39919;38.160;-122.260;2022-11-24T12:14:12;10.20;60.60
54006;DHT22;39919;38.160;-122.260;2022-11-24T12:16:46;10.30;60.40
54006;DHT22;39919;38.160;-122.260;2022-11-24T12:19:25;10.30;60.40
54006;DHT22;39919;38.160;-122.260;2022-11-24T12:22:01;10.40;59.20
54006;DHT22;39919;38.160;-122.260;2022-11-24T12:24:34;10.40;60.00
54006;DHT22;39919;38.160;-122.260;2022-11-24T12:27:04;10.40;59.10
54006;DHT22;39919;38.160;-122.260;2022-11-24T12:29:46;10.40;58.40
54006;DHT22;39919;38.160;-122.260;2022-11-24T12:32:23;10.40;58.50
54006;DHT22;39919;38.160;-122.260;2022-11-24T12:34:54;10.50;57.60
54006;DHT22;39919;38.160;-122.260;2022-11-24T12:40:16;10.50;58.30
54006;DHT22;39919;38.160;-122.260;2022-11-24T12:42:51;10.50;58.30
54006;DHT22;39919;38.160;-122.260;2022-11-24T12:45:27;10.50;59.00
54006;DHT22;39919;38.160;-122.260;2022-11-24T12:48:05;10.60;58.90
54006;DHT22;39919;38.160;-122.260;2022-11-24T12:50:37;10.60;58.90
54006;DHT22;39919;38.160;-122.260;2022-11-24T12:53:08;10.60;58.20
54006;DHT22;39919;38.160;-122.260;2022-11-24T12:55:39;10.70;58.30
54006;DHT22;39919;38.160;-122.260;2022-11-24T12:58:09;10.80;57.80
54006;DHT22;39919;38.160;-122.260;2022-11-24T13:00:42;10.90;57.70
54006;DHT22;39919;38.160;-122.260;2022-11-24T13:03:19;10.90;58.30
54006;DHT22;39919;38.160;-122.260;2022-11-24T13:05:51;11.00;58.50
54006;DHT22;39919;38.160;-122.260;2022-11-24T13:08:20;11.00;59.00
54006;DHT22;39919;38.160;-122.260;2022-11-24T13:10:49;11.00;59.30
54006;DHT22;39919;38.160;-122.260;2022-11-24T13:13:18;11.10;59.80
54006;DHT22;39919;38.160;-122.260;2022-11-24T13:18:46;11.10;60.00
54006;DHT22;39919;38.160;-122.260;2022-11-24T13:21:30;11.10;59.90
54006;DHT22;39919;38.160;-122.260;2022-11-24T13:23:59;11.10;59.90
54006;DHT22;39919;38.160;-122.260;2022-11-24T13:26:28;11.10;60.00
54006;DHT22;39919;38.160;-122.260;2022-11-24T13:28:59;11.10;59.90
54006;DHT22;39919;38.160;-122.260;2022-11-24T13:31:29;11.10;60.20
54006;DHT22;39919;38.160;-122.260;2022-11-24T13:33:59;11.20;60.20
54006;DHT22;39919;38.160;-122.260;2022-11-24T13:36:51;11.20;59.90
54006;DHT22;39919;38.160;-122.260;2022-11-24T13:39:20;11.20;60.00
54006;DHT22;39919;38.160;-122.260;2022-11-24T13:44:45;11.20;59.90
54006;DHT22;39919;38.160;-122.260;2022-11-24T13:49:58;11.10;59.90
54006;DHT22;39919;38.160;-122.260;2022-11-24T13:52:40;11.10;60.40
54006;DHT22;39919;38.160;-122.260;2022-11-24T13:55:19;11.00;60.60
54006;DHT22;39919;38.160;-122.260;2022-11-24T13:57:49;11.00;61.00
54006;DHT22;39919;38.160;-122.260;2022-11-24T14:00:19;10.90;60.60
54006;DHT22;39919;38.160;-122.260;2022-11-24T14:02:48;10.90;60.20
54006;DHT22;39919;38.160;-122.260;2022-11-24T14:05:20;10.90;59.80
54006;DHT22;39919;38.160;-122.260;2022-11-24T14:07:49;11.00;59.20
54006;DHT22;39919;38.160;-122.260;2022-11-24T14:10:20;10.90;58.60
54006;DHT22;39919;38.160;-122.260;2022-11-24T14:15:32;11.10;58.30
54006;DHT22;39919;38.160;-122.260;2022-11-24T14:18:05;11.10;58.10
54006;DHT22;39919;38.160;-122.260;2022-11-24T14:20:42;11.10;57.90
54006;DHT22;39919;38.160;-122.260;2022-11-24T14:23:10;11.10;57.30
54006;DHT22;39919;38.160;-122.260;2022-11-24T14:25:39;11.10;57.90
54006;DHT22;39919;38.160;-122.260;2022-11-24T14:28:14;11.10;57.40
54006;DHT22;39919;38.160;-122.260;2022-11-24T14:30:48;11.10;57.20
54006;DHT22;39919;38.160;-122.260;2022-11-24T14:33:17;11.10;56.40
54006;DHT22;39919;38.160;-122.260;2022-11-24T14:35:48;11.00;56.50
54006;DHT22;39919;38.160;-122.260;2022-11-24T14:38:17;11.00;56.40
54006;DHT22;39919;38.160;-122.260;2022-11-24T14:40:45;11.00;55.90
54006;DHT22;39919;38.160;-122.260;2022-11-24T14:43:20;11.00;55.70
54006;DHT22;39919;38.160;-122.260;2022-11-24T14:45:50;11.00;55.50
54006;DHT22;39919;38.160;-122.260;2022-11-24T14:48:21;10.90;55.30
54006;DHT22;39919;38.160;-122.260;2022-11-24T14:50:52;11.00;55.00
54006;DHT22;39919;38.160;-122.260;2022-11-24T14:53:21;11.00;54.70
54006;DHT22;39919;38.160;-122.260;2022-11-24T14:56:05;11.00;54.60
54006;DHT22;39919;38.160;-122.260;2022-11-24T14:58:34;10.90;55.10
54006;DHT22;39919;38.160;-122.260;2022-11-24T15:01:09;10.90;55.20
54006;DHT22;39919;38.160;-122.260;2022-11-24T15:03:38;10.80;55.80
54006;DHT22;39919;38.160;-122.260;2022-11-24T15:06:13;10.80;56.20
54006;DHT22;39919;38.160;-122.260;2022-11-24T15:08:43;10.80;56.80
54006;DHT22;39919;38.160;-122.260;2022-11-24T15:11:12;10.80;57.50
54006;DHT22;39919;38.160;-122.260;2022-11-24T15:13:49;10.80;58.10
54006;DHT22;39919;38.160;-122.260;2022-11-24T15:16:18;10.80;58.60
54006;DHT22;39919;38.160;-122.260;2022-11-24T15:18:48;10.80;59.10
54006;DHT22;39919;38.160;-122.260;2022-11-24T15:21:18;10.70;59.30
54006;DHT22;39919;38.160;-122.260;2022-11-24T15:24:06;10.80;59.60
54006;DHT22;39919;38.160;-122.260;2022-11-24T15:26:42;10.70;59.80
54006;DHT22;39919;38.160;-122.260;2022-11-24T15:29:11;10.80;59.90
54006;DHT22;39919;38.160;-122.260;2022-11-24T15:31:42;10.80;59.70
54006;DHT22;39919;38.160;-122.260;2022-11-24T15:34:11;10.80;58.80
54006;DHT22;39919;38.160;-122.260;2022-11-24T15:36:43;10.70;58.70
54006;DHT22;39919;38.160;-122.260;2022-11-24T15:39:11;10.70;58.50
54006;DHT22;39919;38.160;-122.260;2022-11-24T15:41:39;10.80;58.40
54006;DHT22;39919;38.160;-122.260;2022-11-24T15:44:09;10.80;58.40
54006;DHT22;39919;38.160;-122.260;2022-11-24T15:46:37;10.80;58.40
54006;DHT22;39919;38.160;-122.260;2022-11-24T15:49:05;10.90;58.80
54006;DHT22;39919;38.160;-122.260;2022-11-24T15:51:34;10.90;59.00
54006;DHT22;39919;38.160;-122.260;2022-11-24T15:54:09;10.90;59.10
54006;DHT22;39919;38.160;-122.260;2022-11-24T15:56:40;11.00;59.20
54006;DHT22;39919;38.160;-122.260;2022-11-24T15:59:10;11.00;59.30
54006;DHT22;39919;38.160;-122.260;2022-11-24T16:01:40;11.10;58.80
54006;DHT22;39919;38.160;-122.260;2022-11-24T16:04:08;11.10;58.80
54006;DHT22;39919;38.160;-122.260;2022-11-24T16:06:38;11.20;58.90
54006;DHT22;39919;38.160;-122.260;2022-11-24T16:09:10;11.30;58.80
54006;DHT22;39919;38.160;-122.260;2022-11-24T16:11:39;11.40;58.90
54006;DHT22;39919;38.160;-122.260;2022-11-24T16:14:07;11.50;58.40
54006;DHT22;39919;38.160;-122.260;2022-11-24T16:16:35;11.60;58.40
54006;DHT22;39919;38.160;-122.260;2022-11-24T16:19:05;11.70;58.00
54006;DHT22;39919;38.160;-122.260;2022-11-24T16:21:33;11.80;57.90
54006;DHT22;39919;38.160;-122.260;2022-11-24T16:24:01;11.80;58.00
54006;DHT22;39919;38.160;-122.260;2022-11-24T16:26:31;11.90;57.30
54006;DHT22;39919;38.160;-122.260;2022-11-24T16:29:00;12.00;56.90
54006;DHT22;39919;38.160;-122.260;2022-11-24T16:31:28;12.10;56.10
54006;DHT22;39919;38.160;-122.260;2022-11-24T16:33:56;12.20;63.90
54006;DHT22;39919;38.160;-122.260;2022-11-24T16:36:24;12.30;63.30
54006;DHT22;39919;38.160;-122.260;2022-11-24T16:38:53;12.30;62.10
54006;DHT22;39919;38.160;-122.260;2022-11-24T16:41:21;12.40;62.30
54006;DHT22;39919;38.160;-122.260;2022-11-24T16:43:51;12.50;60.50
54006;DHT22;39919;38.160;-122.260;2022-11-24T16:46:20;12.70;60.40
54006;DHT22;39919;38.160;-122.260;2022-11-24T16:48:49;12.80;59.50
54006;DHT22;39919;38.160;-122.260;2022-11-24T16:51:18;12.90;59.50
54006;DHT22;39919;38.160;-122.260;2022-11-24T16:53:47;12.90;52.20
54006;DHT22;39919;38.160;-122.260;2022-11-24T16:56:15;13.10;52.30
54006;DHT22;39919;38.160;-122.260;2022-11-24T16:58:43;13.20;72.80
54006;DHT22;39919;38.160;-122.260;2022-11-24T17:01:14;13.30;73.30
54006;DHT22;39919;38.160;-122.260;2022-11-24T17:03:42;13.30;72.90
54006;DHT22;39919;38.160;-122.260;2022-11-24T17:06:10;13.40;72.80
54006;DHT22;39919;38.160;-122.260;2022-11-24T17:08:40;13.40;72.80
54006;DHT22;39919;38.160;-122.260;2022-11-24T17:11:09;13.50;72.20
54006;DHT22;39919;38.160;-122.260;2022-11-24T17:13:38;13.50;71.80
54006;DHT22;39919;38.160;-122.260;2022-11-24T17:16:07;13.50;71.40
54006;DHT22;39919;38.160;-122.260;2022-11-24T17:18:37;13.60;70.20
54006;DHT22;39919;38.160;-122.260;2022-11-24T17:21:05;13.60;52.00
54006;DHT22;39919;38.160;-122.260;2022-11-24T17:23:34;13.70;52.90
54006;DHT22;39919;38.160;-122.260;2022-11-24T17:26:03;13.70;53.10
54006;DHT22;39919;38.160;-122.260;2022-11-24T17:28:31;13.80;52.70
54006;DHT22;39919;38.160;-122.260;2022-11-24T17:31:04;14.10;53.00
54006;DHT22;39919;38.160;-122.260;2022-11-24T17:33:32;14.70;51.20
54006;DHT22;39919;38.160;-122.260;2022-11-24T17:36:03;15.60;69.60
54006;DHT22;39919;38.160;-122.260;2022-11-24T17:38:32;16.50;46.90